sensor_id;sensor_type;location;lat;lon;timestamp;P1;durP1;ratioP1;P2;durP2;ratioP2
5690;SDS011;2870;42.680;23.364;2023-02-19T00:01:26;29.30;;;11.80;;
5690;SDS011;2870;42.680;23.364;2023-02-19T00:03:55;17.93;;;11.33;;
5690;SDS011;2870;42.680;23.364;2023-02-19T00:06:24;20.93;;;11.90;;
5690;SDS011;2870;42.680;23.364;2023-02-19T00:08:53;21.10;;;10.57;;
5690;SDS011;2870;42.680;23.364;2023-02-19T00:11:23;19.87;;;11.60;;
5690;SDS011;2870;42.680;23.364;2023-02-19T00:13:52;19.67;;;11.80;;
5690;SDS011;2870;42.680;23.364;2023-02-19T00:16:22;22.63;;;11.63;;
5690;SDS011;2870;42.680;23.364;2023-02-19T00:18:50;20.00;;;11.43;;
5690;SDS011;2870;42.680;23.364;2023-02-19T00:21:17;22.97;;;11.40;;
5690;SDS011;2870;42.680;23.364;2023-02-19T00:23:47;25.53;;;11.93;;
5690;SDS011;2870;42.680;23.364;2023-02-19T00:26:14;24.90;;;13.40;;
5690;SDS011;2870;42.680;23.364;2023-02-19T00:28:42;21.30;;;11.20;;
5690;SDS011;2870;42.680;23.364;2023-02-19T00:31:12;20.20;;;11.47;;
5690;SDS011;2870;42.680;23.364;2023-02-19T00:33:42;19.33;;;11.17;;
5690;SDS011;2870;42.680;23.364;2023-02-19T00:36:09;20.30;;;12.13;;
5690;SDS011;2870;42.680;23.364;2023-02-19T00:38:36;21.53;;;11.93;;
5690;SDS011;2870;42.680;23.364;2023-02-19T00:41:04;19.97;;;10.87;;
5690;SDS011;2870;42.680;23.364;2023-02-19T00:43:44;26.70;;;12.60;;
5690;SDS011;2870;42.680;23.364;2023-02-19T00:46:12;15.63;;;10.90;;
5690;SDS011;2870;42.680;23.364;2023-02-19T00:48:39;22.40;;;12.50;;
5690;SDS011;2870;42.680;23.364;2023-02-19T00:51:06;26.27;;;12.17;;
5690;SDS011;2870;42.680;23.364;2023-02-19T00:53:33;18.60;;;11.73;;
5690;SDS011;2870;42.680;23.364;2023-02-19T00:55:59;23.93;;;13.20;;
5690;SDS011;2870;42.680;23.364;2023-02-19T00:58:26;20.27;;;11.67;;
5690;SDS011;2870;42.680;23.364;2023-02-19T01:00:54;20.40;;;10.87;;
5690;SDS011;2870;42.680;23.364;2023-02-19T01:03:21;18.97;;;10.43;;
5690;SDS011;2870;42.680;23.364;2023-02-19T01:05:48;19.57;;;11.70;;
5690;SDS011;2870;42.680;23.364;2023-02-19T01:08:15;40.70;;;11.70;;
5690;SDS011;2870;42.680;23.364;2023-02-19T01:10:42;21.67;;;12.40;;
5690;SDS011;2870;42.680;23.364;2023-02-19T01:13:09;26.00;;;11.80;;
5690;SDS011;2870;42.680;23.364;2023-02-19T01:15:36;22.03;;;11.03;;
5690;SDS011;2870;42.680;23.364;2023-02-19T01:18:05;26.83;;;12.20;;
5690;SDS011;2870;42.680;23.364;2023-02-19T01:20:31;29.70;;;12.03;;
5690;SDS011;2870;42.680;23.364;2023-02-19T01:22:58;22.57;;;10.60;;
5690;SDS011;2870;42.680;23.364;2023-02-19T01:25:25;17.27;;;11.03;;
5690;SDS011;2870;42.680;23.364;2023-02-19T01:27:52;21.07;;;10.70;;
5690;SDS011;2870;42.680;23.364;2023-02-19T01:30:19;25.87;;;14.00;;
5690;SDS011;2870;42.680;23.364;2023-02-19T01:32:45;18.50;;;11.17;;
5690;SDS011;2870;42.680;23.364;2023-02-19T01:35:13;32.40;;;13.43;;
5690;SDS011;2870;42.680;23.364;2023-02-19T01:37:40;21.93;;;12.57;;
5690;SDS011;2870;42.680;23.364;2023-02-19T01:40:08;20.90;;;11.13;;
5690;SDS011;2870;42.680;23.364;2023-02-19T01:42:35;26.70;;;11.93;;
5690;SDS011;2870;42.680;23.364;2023-02-19T01:48:00;21.53;;;11.33;;
5690;SDS011;2870;42.680;23.364;2023-02-19T01:50:35;22.27;;;12.80;;
5690;SDS011;2870;42.680;23.364;2023-02-19T01:53:07;18.00;;;11.50;;
5690;SDS011;2870;42.680;23.364;2023-02-19T01:55:37;23.20;;;13.67;;
5690;SDS011;2870;42.680;23.364;2023-02-19T01:58:05;28.50;;;12.33;;
5690;SDS011;2870;42.680;23.364;2023-02-19T02:00:33;27.80;;;13.57;;
5690;SDS011;2870;42.680;23.364;2023-02-19T02:03:00;22.83;;;13.23;;
5690;SDS011;2870;42.680;23.364;2023-02-19T02:05:41;25.43;;;12.47;;
5690;SDS011;2870;42.680;23.364;2023-02-19T02:08:13;23.67;;;12.40;;
5690;SDS011;2870;42.680;23.364;2023-02-19T02:11:00;18.30;;;11.47;;
5690;SDS011;2870;42.680;23.364;2023-02-19T02:13:27;26.60;;;12.70;;
5690;SDS011;2870;42.680;23.364;2023-02-19T02:15:58;20.00;;;11.70;;
5690;SDS011;2870;42.680;23.364;2023-02-19T02:18:34;18.50;;;11.60;;
5690;SDS011;2870;42.680;23.364;2023-02-19T02:21:18;26.60;;;12.43;;
5690;SDS011;2870;42.680;23.364;2023-02-19T02:24:07;25.00;;;11.00;;
5690;SDS011;2870;42.680;23.364;2023-02-19T02:26:45;22.60;;;12.83;;
5690;SDS011;2870;42.680;23.364;2023-02-19T02:29:31;20.90;;;12.60;;
5690;SDS011;2870;42.680;23.364;2023-02-19T02:32:37;22.23;;;12.40;;
5690;SDS011;2870;42.680;23.364;2023-02-19T02:35:18;22.93;;;12.23;;
5690;SDS011;2870;42.680;23.364;2023-02-19T02:37:48;30.47;;;12.50;;
5690;SDS011;2870;42.680;23.364;2023-02-19T02:40:16;30.40;;;11.60;;
5690;SDS011;2870;42.680;23.364;2023-02-19T02:42:44;25.90;;;11.53;;
5690;SDS011;2870;42.680;23.364;2023-02-19T02:48:15;20.00;;;11.90;;
5690;SDS011;2870;42.680;23.364;2023-02-19T02:50:47;20.13;;;11.40;;
5690;SDS011;2870;42.680;23.364;2023-02-19T02:53:19;35.07;;;11.90;;
5690;SDS011;2870;42.680;23.364;2023-02-19T02:56:08;19.63;;;11.80;;
5690;SDS011;2870;42.680;23.364;2023-02-19T02:58:38;31.13;;;12.60;;
5690;SDS011;2870;42.680;23.364;2023-02-19T03:01:06;21.00;;;11.87;;
5690;SDS011;2870;42.680;23.364;2023-02-19T03:03:56;23.40;;;13.97;;
5690;SDS011;2870;42.680;23.364;2023-02-19T03:06:27;22.83;;;12.43;;
5690;SDS011;2870;42.680;23.364;2023-02-19T03:08:57;24.57;;;13.20;;
5690;SDS011;2870;42.680;23.364;2023-02-19T03:11:30;19.30;;;11.60;;
5690;SDS011;2870;42.680;23.364;2023-02-19T03:14:19;25.87;;;13.17;;
5690;SDS011;2870;42.680;23.364;2023-02-19T03:17:07;30.37;;;14.00;;
5690;SDS011;2870;42.680;23.364;2023-02-19T03:19:57;21.97;;;14.20;;
5690;SDS011;2870;42.680;23.364;2023-02-19T03:22:30;33.97;;;16.60;;
5690;SDS011;2870;42.680;23.364;2023-02-19T03:25:00;32.03;;;18.10;;
5690;SDS011;2870;42.680;23.364;2023-02-19T03:27:50;38.40;;;16.23;;
5690;SDS011;2870;42.680;23.364;2023-02-19T03:30:18;25.93;;;16.50;;
5690;SDS011;2870;42.680;23.364;2023-02-19T03:32:48;35.50;;;17.20;;
5690;SDS011;2870;42.680;23.364;2023-02-19T03:35:20;35.27;;;18.60;;
5690;SDS011;2870;42.680;23.364;2023-02-19T03:37:52;32.40;;;16.63;;
5690;SDS011;2870;42.680;23.364;2023-02-19T03:40:25;31.67;;;18.10;;
5690;SDS011;2870;42.680;23.364;2023-02-19T03:42:57;29.50;;;17.40;;
5690;SDS011;2870;42.680;23.364;2023-02-19T03:45:32;34.47;;;17.00;;
5690;SDS011;2870;42.680;23.364;2023-02-19T03:48:16;27.20;;;16.83;;
5690;SDS011;2870;42.680;23.364;2023-02-19T03:50:49;32.57;;;17.03;;
5690;SDS011;2870;42.680;23.364;2023-02-19T03:53:23;33.33;;;18.10;;
5690;SDS011;2870;42.680;23.364;2023-02-19T03:55:59;31.60;;;17.57;;
5690;SDS011;2870;42.680;23.364;2023-02-19T03:58:33;30.40;;;16.43;;
5690;SDS011;2870;42.680;23.364;2023-02-19T04:01:06;26.03;;;16.60;;
5690;SDS011;2870;42.680;23.364;2023-02-19T04:03:36;35.23;;;18.30;;
5690;SDS011;2870;42.680;23.364;2023-02-19T04:06:10;25.57;;;16.30;;
5690;SDS011;2870;42.680;23.364;2023-02-19T04:08:41;32.27;;;17.47;;
5690;SDS011;2870;42.680;23.364;2023-02-19T04:11:11;34.73;;;15.97;;
5690;SDS011;2870;42.680;23.364;2023-02-19T04:13:41;27.90;;;14.63;;
5690;SDS011;2870;42.680;23.364;2023-02-19T04:16:12;25.57;;;16.30;;
5690;SDS011;2870;42.680;23.364;2023-02-19T04:18:46;35.10;;;16.47;;
5690;SDS011;2870;42.680;23.364;2023-02-19T04:21:18;35.37;;;14.80;;
5690;SDS011;2870;42.680;23.364;2023-02-19T04:23:47;31.67;;;15.40;;
5690;SDS011;2870;42.680;23.364;2023-02-19T04:26:15;23.83;;;15.10;;
5690;SDS011;2870;42.680;23.364;2023-02-19T04:28:44;32.27;;;15.67;;
5690;SDS011;2870;42.680;23.364;2023-02-19T04:31:11;26.20;;;15.90;;
5690;SDS011;2870;42.680;23.364;2023-02-19T04:33:38;32.43;;;13.53;;
5690;SDS011;2870;42.680;23.364;2023-02-19T04:36:06;39.23;;;13.03;;
5690;SDS011;2870;42.680;23.364;2023-02-19T04:38:36;21.07;;;13.17;;
5690;SDS011;2870;42.680;23.364;2023-02-19T04:41:03;28.70;;;14.50;;
5690;SDS011;2870;42.680;23.364;2023-02-19T04:43:30;20.43;;;12.57;;
5690;SDS011;2870;42.680;23.364;2023-02-19T04:45:58;20.67;;;12.07;;
5690;SDS011;2870;42.680;23.364;2023-02-19T04:48:26;30.97;;;12.60;;
5690;SDS011;2870;42.680;23.364;2023-02-19T04:50:53;23.57;;;13.53;;
5690;SDS011;2870;42.680;23.364;2023-02-19T04:53:20;21.90;;;12.97;;
5690;SDS011;2870;42.680;23.364;2023-02-19T04:55:49;23.30;;;12.03;;
5690;SDS011;2870;42.680;23.364;2023-02-19T04:58:17;23.20;;;12.70;;
5690;SDS011;2870;42.680;23.364;2023-02-19T05:00:45;24.10;;;12.00;;
5690;SDS011;2870;42.680;23.364;2023-02-19T05:03:12;23.77;;;12.30;;
5690;SDS011;2870;42.680;23.364;2023-02-19T05:05:38;21.00;;;11.30;;
5690;SDS011;2870;42.680;23.364;2023-02-19T05:08:05;23.40;;;12.17;;
5690;SDS011;2870;42.680;23.364;2023-02-19T05:10:32;18.77;;;10.90;;
5690;SDS011;2870;42.680;23.364;2023-02-19T05:13:00;18.97;;;11.23;;
5690;SDS011;2870;42.680;23.364;2023-02-19T05:15:27;21.40;;;11.40;;
5690;SDS011;2870;42.680;23.364;2023-02-19T05:17:54;21.20;;;11.07;;
5690;SDS011;2870;42.680;23.364;2023-02-19T05:20:20;26.33;;;12.20;;
5690;SDS011;2870;42.680;23.364;2023-02-19T05:22:47;19.93;;;12.57;;
5690;SDS011;2870;42.680;23.364;2023-02-19T05:25:14;21.70;;;11.73;;
5690;SDS011;2870;42.680;23.364;2023-02-19T05:27:41;25.03;;;11.47;;
5690;SDS011;2870;42.680;23.364;2023-02-19T05:30:10;19.93;;;12.77;;
5690;SDS011;2870;42.680;23.364;2023-02-19T05:32:37;20.10;;;11.80;;
5690;SDS011;2870;42.680;23.364;2023-02-19T05:35:04;24.33;;;12.47;;
5690;SDS011;2870;42.680;23.364;2023-02-19T05:37:31;23.03;;;12.00;;
5690;SDS011;2870;42.680;23.364;2023-02-19T05:39:57;31.07;;;12.60;;
5690;SDS011;2870;42.680;23.364;2023-02-19T05:42:24;23.27;;;13.13;;
5690;SDS011;2870;42.680;23.364;2023-02-19T05:44:51;22.13;;;11.93;;
5690;SDS011;2870;42.680;23.364;2023-02-19T05:47:19;21.40;;;12.47;;
5690;SDS011;2870;42.680;23.364;2023-02-19T05:49:46;26.83;;;13.00;;
5690;SDS011;2870;42.680;23.364;2023-02-19T05:52:13;21.87;;;11.57;;
5690;SDS011;2870;42.680;23.364;2023-02-19T05:54:39;18.40;;;12.30;;
5690;SDS011;2870;42.680;23.364;2023-02-19T05:57:06;26.03;;;12.77;;
5690;SDS011;2870;42.680;23.364;2023-02-19T05:59:33;23.90;;;11.67;;
5690;SDS011;2870;42.680;23.364;2023-02-19T06:02:00;25.63;;;11.73;;
5690;SDS011;2870;42.680;23.364;2023-02-19T06:04:28;22.37;;;11.83;;
5690;SDS011;2870;42.680;23.364;2023-02-19T06:06:55;34.40;;;15.93;;
5690;SDS011;2870;42.680;23.364;2023-02-19T06:09:21;26.07;;;12.87;;
5690;SDS011;2870;42.680;23.364;2023-02-19T06:11:48;22.37;;;13.00;;
5690;SDS011;2870;42.680;23.364;2023-02-19T06:14:15;23.07;;;12.80;;
5690;SDS011;2870;42.680;23.364;2023-02-19T06:16:42;23.80;;;12.73;;
5690;SDS011;2870;42.680;23.364;2023-02-19T06:19:08;19.97;;;12.57;;
5690;SDS011;2870;42.680;23.364;2023-02-19T06:21:37;22.27;;;12.57;;
5690;SDS011;2870;42.680;23.364;2023-02-19T06:24:05;36.50;;;14.10;;
5690;SDS011;2870;42.680;23.364;2023-02-19T06:26:32;26.80;;;12.43;;
5690;SDS011;2870;42.680;23.364;2023-02-19T06:28:59;22.07;;;12.53;;
5690;SDS011;2870;42.680;23.364;2023-02-19T06:31:26;31.67;;;14.40;;
5690;SDS011;2870;42.680;23.364;2023-02-19T06:33:53;23.17;;;12.63;;
5690;SDS011;2870;42.680;23.364;2023-02-19T06:36:20;24.57;;;11.90;;
5690;SDS011;2870;42.680;23.364;2023-02-19T06:38:49;24.40;;;12.00;;
5690;SDS011;2870;42.680;23.364;2023-02-19T06:41:16;25.20;;;13.43;;
5690;SDS011;2870;42.680;23.364;2023-02-19T06:43:43;26.70;;;13.37;;
5690;SDS011;2870;42.680;23.364;2023-02-19T06:46:11;28.10;;;13.00;;
5690;SDS011;2870;42.680;23.364;2023-02-19T06:48:38;24.03;;;11.80;;
5690;SDS011;2870;42.680;23.364;2023-02-19T06:51:08;23.80;;;11.80;;
5690;SDS011;2870;42.680;23.364;2023-02-19T06:53:36;22.03;;;10.57;;
5690;SDS011;2870;42.680;23.364;2023-02-19T06:56:06;19.63;;;11.30;;
5690;SDS011;2870;42.680;23.364;2023-02-19T06:58:46;24.87;;;12.03;;
5690;SDS011;2870;42.680;23.364;2023-02-19T07:01:13;24.93;;;12.93;;
5690;SDS011;2870;42.680;23.364;2023-02-19T07:03:39;21.93;;;11.80;;
5690;SDS011;2870;42.680;23.364;2023-02-19T07:06:06;17.57;;;11.30;;
5690;SDS011;2870;42.680;23.364;2023-02-19T07:08:33;23.73;;;10.67;;
5690;SDS011;2870;42.680;23.364;2023-02-19T07:11:00;13.67;;;9.23;;
5690;SDS011;2870;42.680;23.364;2023-02-19T07:13:28;24.70;;;9.63;;
5690;SDS011;2870;42.680;23.364;2023-02-19T07:15:57;13.87;;;9.40;;
5690;SDS011;2870;42.680;23.364;2023-02-19T07:18:24;22.30;;;9.20;;
5690;SDS011;2870;42.680;23.364;2023-02-19T07:20:51;14.27;;;8.77;;
5690;SDS011;2870;42.680;23.364;2023-02-19T07:23:17;19.80;;;8.00;;
5690;SDS011;2870;42.680;23.364;2023-02-19T07:25:44;15.87;;;7.77;;
5690;SDS011;2870;42.680;23.364;2023-02-19T07:28:11;13.30;;;8.40;;
5690;SDS011;2870;42.680;23.364;2023-02-19T07:30:39;15.70;;;8.43;;
5690;SDS011;2870;42.680;23.364;2023-02-19T07:33:06;14.70;;;9.07;;
5690;SDS011;2870;42.680;23.364;2023-02-19T07:35:32;15.90;;;8.33;;
5690;SDS011;2870;42.680;23.364;2023-02-19T07:37:59;21.23;;;10.90;;
5690;SDS011;2870;42.680;23.364;2023-02-19T07:40:26;15.10;;;8.97;;
5690;SDS011;2870;42.680;23.364;2023-02-19T07:42:53;16.30;;;7.90;;
5690;SDS011;2870;42.680;23.364;2023-02-19T07:45:20;12.87;;;8.37;;
5690;SDS011;2870;42.680;23.364;2023-02-19T07:47:48;15.60;;;7.93;;
5690;SDS011;2870;42.680;23.364;2023-02-19T07:50:14;12.63;;;8.53;;
5690;SDS011;2870;42.680;23.364;2023-02-19T07:52:41;18.33;;;8.07;;
5690;SDS011;2870;42.680;23.364;2023-02-19T07:55:08;12.93;;;8.47;;
5690;SDS011;2870;42.680;23.364;2023-02-19T07:57:35;19.67;;;8.37;;
5690;SDS011;2870;42.680;23.364;2023-02-19T08:00:02;11.23;;;7.83;;
5690;SDS011;2870;42.680;23.364;2023-02-19T08:02:29;17.10;;;8.67;;
5690;SDS011;2870;42.680;23.364;2023-02-19T08:05:14;15.67;;;8.17;;
5690;SDS011;2870;42.680;23.364;2023-02-19T08:07:41;14.07;;;8.30;;
5690;SDS011;2870;42.680;23.364;2023-02-19T08:10:08;15.40;;;8.40;;
5690;SDS011;2870;42.680;23.364;2023-02-19T08:12:55;15.77;;;8.40;;
5690;SDS011;2870;42.680;23.364;2023-02-19T08:15:41;14.10;;;7.27;;
5690;SDS011;2870;42.680;23.364;2023-02-19T08:18:08;18.33;;;7.00;;
5690;SDS011;2870;42.680;23.364;2023-02-19T08:20:36;17.10;;;8.27;;
5690;SDS011;2870;42.680;23.364;2023-02-19T08:23:03;16.77;;;8.07;;
5690;SDS011;2870;42.680;23.364;2023-02-19T08:25:30;11.40;;;7.00;;
5690;SDS011;2870;42.680;23.364;2023-02-19T08:27:57;16.20;;;7.70;;
5690;SDS011;2870;42.680;23.364;2023-02-19T08:30:24;14.50;;;7.70;;
5690;SDS011;2870;42.680;23.364;2023-02-19T08:32:51;15.73;;;8.40;;
5690;SDS011;2870;42.680;23.364;2023-02-19T08:35:18;23.00;;;7.60;;
5690;SDS011;2870;42.680;23.364;2023-02-19T08:37:46;9.70;;;6.67;;
5690;SDS011;2870;42.680;23.364;2023-02-19T08:40:13;15.03;;;7.93;;
5690;SDS011;2870;42.680;23.364;2023-02-19T08:42:40;15.37;;;7.63;;
5690;SDS011;2870;42.680;23.364;2023-02-19T08:45:07;14.27;;;7.60;;
5690;SDS011;2870;42.680;23.364;2023-02-19T08:47:34;12.23;;;7.63;;
5690;SDS011;2870;42.680;23.364;2023-02-19T08:50:02;13.67;;;8.67;;
5690;SDS011;2870;42.680;23.364;2023-02-19T08:52:29;15.10;;;7.80;;
5690;SDS011;2870;42.680;23.364;2023-02-19T08:54:58;16.27;;;8.00;;
5690;SDS011;2870;42.680;23.364;2023-02-19T08:57:25;24.57;;;8.87;;
5690;SDS011;2870;42.680;23.364;2023-02-19T08:59:53;19.47;;;7.73;;
5690;SDS011;2870;42.680;23.364;2023-02-19T09:02:20;15.50;;;8.30;;
5690;SDS011;2870;42.680;23.364;2023-02-19T09:04:47;15.50;;;7.80;;
5690;SDS011;2870;42.680;23.364;2023-02-19T09:07:14;16.53;;;7.70;;
5690;SDS011;2870;42.680;23.364;2023-02-19T09:09:41;13.23;;;7.33;;
5690;SDS011;2870;42.680;23.364;2023-02-19T09:12:10;10.80;;;7.13;;
5690;SDS011;2870;42.680;23.364;2023-02-19T09:14:38;11.67;;;6.90;;
5690;SDS011;2870;42.680;23.364;2023-02-19T09:17:05;8.90;;;5.77;;
5690;SDS011;2870;42.680;23.364;2023-02-19T09:19:33;9.87;;;5.57;;
5690;SDS011;2870;42.680;23.364;2023-02-19T09:22:00;12.43;;;6.67;;
5690;SDS011;2870;42.680;23.364;2023-02-19T09:24:27;13.13;;;6.43;;
5690;SDS011;2870;42.680;23.364;2023-02-19T09:26:54;15.53;;;6.63;;
5690;SDS011;2870;42.680;23.364;2023-02-19T09:29:24;11.33;;;5.50;;
5690;SDS011;2870;42.680;23.364;2023-02-19T09:31:54;11.90;;;6.57;;
5690;SDS011;2870;42.680;23.364;2023-02-19T09:34:21;9.50;;;5.50;;
5690;SDS011;2870;42.680;23.364;2023-02-19T09:36:49;11.80;;;5.63;;
5690;SDS011;2870;42.680;23.364;2023-02-19T09:39:16;9.00;;;5.90;;
5690;SDS011;2870;42.680;23.364;2023-02-19T09:41:43;12.37;;;6.30;;
5690;SDS011;2870;42.680;23.364;2023-02-19T09:44:14;15.07;;;5.60;;
5690;SDS011;2870;42.680;23.364;2023-02-19T09:46:47;8.37;;;4.93;;
5690;SDS011;2870;42.680;23.364;2023-02-19T09:49:17;10.37;;;6.20;;
5690;SDS011;2870;42.680;23.364;2023-02-19T09:51:48;9.47;;;5.40;;
5690;SDS011;2870;42.680;23.364;2023-02-19T09:54:20;8.80;;;5.60;;
5690;SDS011;2870;42.680;23.364;2023-02-19T09:56:50;13.70;;;6.97;;
5690;SDS011;2870;42.680;23.364;2023-02-19T09:59:19;9.33;;;5.60;;
5690;SDS011;2870;42.680;23.364;2023-02-19T10:01:51;8.27;;;5.70;;
5690;SDS011;2870;42.680;23.364;2023-02-19T10:04:23;8.60;;;5.33;;
5690;SDS011;2870;42.680;23.364;2023-02-19T10:06:50;9.20;;;6.07;;
5690;SDS011;2870;42.680;23.364;2023-02-19T10:09:20;10.10;;;6.00;;
5690;SDS011;2870;42.680;23.364;2023-02-19T10:11:50;20.33;;;5.53;;
5690;SDS011;2870;42.680;23.364;2023-02-19T10:14:18;9.80;;;5.60;;
5690;SDS011;2870;42.680;23.364;2023-02-19T10:16:51;13.50;;;5.80;;
5690;SDS011;2870;42.680;23.364;2023-02-19T10:19:18;10.60;;;5.80;;
5690;SDS011;2870;42.680;23.364;2023-02-19T10:21:45;9.33;;;6.00;;
5690;SDS011;2870;42.680;23.364;2023-02-19T10:24:13;9.17;;;6.30;;
5690;SDS011;2870;42.680;23.364;2023-02-19T10:26:45;10.23;;;5.90;;
5690;SDS011;2870;42.680;23.364;2023-02-19T10:29:12;10.73;;;6.07;;
5690;SDS011;2870;42.680;23.364;2023-02-19T10:31:38;10.23;;;5.67;;
5690;SDS011;2870;42.680;23.364;2023-02-19T10:34:18;10.70;;;6.13;;
5690;SDS011;2870;42.680;23.364;2023-02-19T10:36:47;13.60;;;6.83;;
5690;SDS011;2870;42.680;23.364;2023-02-19T10:42:12;9.80;;;6.20;;
5690;SDS011;2870;42.680;23.364;2023-02-19T10:44:43;13.63;;;5.80;;
5690;SDS011;2870;42.680;23.364;2023-02-19T10:47:16;10.70;;;6.60;;
5690;SDS011;2870;42.680;23.364;2023-02-19T10:49:45;9.90;;;6.10;;
5690;SDS011;2870;42.680;23.364;2023-02-19T10:52:16;9.30;;;5.87;;
5690;SDS011;2870;42.680;23.364;2023-02-19T10:54:48;9.57;;;6.57;;
5690;SDS011;2870;42.680;23.364;2023-02-19T10:57:23;10.57;;;6.63;;
5690;SDS011;2870;42.680;23.364;2023-02-19T10:59:59;9.67;;;5.70;;
5690;SDS011;2870;42.680;23.364;2023-02-19T11:02:28;11.63;;;6.30;;
5690;SDS011;2870;42.680;23.364;2023-02-19T11:05:05;8.77;;;6.07;;
5690;SDS011;2870;42.680;23.364;2023-02-19T11:07:43;11.10;;;6.50;;
5690;SDS011;2870;42.680;23.364;2023-02-19T11:10:24;10.60;;;6.23;;
5690;SDS011;2870;42.680;23.364;2023-02-19T11:12:56;16.63;;;7.10;;
5690;SDS011;2870;42.680;23.364;2023-02-19T11:15:26;8.67;;;5.83;;
5690;SDS011;2870;42.680;23.364;2023-02-19T11:17:55;13.30;;;7.03;;
5690;SDS011;2870;42.680;23.364;2023-02-19T11:20:26;10.97;;;6.00;;
5690;SDS011;2870;42.680;23.364;2023-02-19T11:22:56;11.03;;;6.30;;
5690;SDS011;2870;42.680;23.364;2023-02-19T11:25:25;23.97;;;7.23;;
5690;SDS011;2870;42.680;23.364;2023-02-19T11:27:56;12.33;;;6.33;;
5690;SDS011;2870;42.680;23.364;2023-02-19T11:30:31;9.77;;;6.33;;
5690;SDS011;2870;42.680;23.364;2023-02-19T11:33:12;12.93;;;8.03;;
5690;SDS011;2870;42.680;23.364;2023-02-19T11:35:47;13.53;;;6.43;;
5690;SDS011;2870;42.680;23.364;2023-02-19T11:38:16;13.57;;;6.67;;
5690;SDS011;2870;42.680;23.364;2023-02-19T11:40:48;11.83;;;6.43;;
5690;SDS011;2870;42.680;23.364;2023-02-19T11:43:23;13.70;;;6.50;;
5690;SDS011;2870;42.680;23.364;2023-02-19T11:46:01;20.00;;;6.97;;
5690;SDS011;2870;42.680;23.364;2023-02-19T11:48:46;11.40;;;6.47;;
5690;SDS011;2870;42.680;23.364;2023-02-19T11:51:25;13.43;;;6.33;;
5690;SDS011;2870;42.680;23.364;2023-02-19T11:54:03;14.03;;;8.20;;
5690;SDS011;2870;42.680;23.364;2023-02-19T11:56:40;11.03;;;5.87;;
5690;SDS011;2870;42.680;23.364;2023-02-19T11:59:11;11.03;;;6.20;;
5690;SDS011;2870;42.680;23.364;2023-02-19T12:01:50;14.13;;;6.10;;
5690;SDS011;2870;42.680;23.364;2023-02-19T12:07:40;10.17;;;4.90;;
5690;SDS011;2870;42.680;23.364;2023-02-19T12:10:27;11.23;;;6.63;;
5690;SDS011;2870;42.680;23.364;2023-02-19T12:13:02;8.70;;;5.10;;
5690;SDS011;2870;42.680;23.364;2023-02-19T12:15:44;12.63;;;5.20;;
5690;SDS011;2870;42.680;23.364;2023-02-19T12:18:28;13.13;;;5.27;;
5690;SDS011;2870;42.680;23.364;2023-02-19T12:21:12;11.30;;;5.17;;
5690;SDS011;2870;42.680;23.364;2023-02-19T12:27:00;8.00;;;5.27;;
5690;SDS011;2870;42.680;23.364;2023-02-19T12:29:40;8.67;;;4.83;;
5690;SDS011;2870;42.680;23.364;2023-02-19T12:32:29;10.00;;;5.30;;
5690;SDS011;2870;42.680;23.364;2023-02-19T12:38:20;10.63;;;5.47;;
5690;SDS011;2870;42.680;23.364;2023-02-19T12:40:59;10.53;;;5.20;;
5690;SDS011;2870;42.680;23.364;2023-02-19T12:43:38;8.80;;;5.87;;
5690;SDS011;2870;42.680;23.364;2023-02-19T12:46:11;14.40;;;5.80;;
5690;SDS011;2870;42.680;23.364;2023-02-19T12:48:45;9.20;;;5.40;;
5690;SDS011;2870;42.680;23.364;2023-02-19T12:51:19;10.43;;;5.93;;
5690;SDS011;2870;42.680;23.364;2023-02-19T12:53:51;13.83;;;5.30;;
5690;SDS011;2870;42.680;23.364;2023-02-19T12:56:24;11.33;;;6.57;;
5690;SDS011;2870;42.680;23.364;2023-02-19T12:58:55;15.23;;;8.30;;
5690;SDS011;2870;42.680;23.364;2023-02-19T13:01:27;13.37;;;7.67;;
5690;SDS011;2870;42.680;23.364;2023-02-19T13:04:05;14.13;;;6.57;;
5690;SDS011;2870;42.680;23.364;2023-02-19T13:06:44;12.57;;;6.03;;
5690;SDS011;2870;42.680;23.364;2023-02-19T13:09:16;10.60;;;6.80;;
5690;SDS011;2870;42.680;23.364;2023-02-19T13:11:53;17.17;;;6.20;;
5690;SDS011;2870;42.680;23.364;2023-02-19T13:14:25;12.47;;;5.43;;
5690;SDS011;2870;42.680;23.364;2023-02-19T13:16:56;11.63;;;5.73;;
5690;SDS011;2870;42.680;23.364;2023-02-19T13:19:26;12.00;;;6.00;;
5690;SDS011;2870;42.680;23.364;2023-02-19T13:21:55;8.77;;;6.17;;
5690;SDS011;2870;42.680;23.364;2023-02-19T13:24:58;13.83;;;6.40;;
5690;SDS011;2870;42.680;23.364;2023-02-19T13:27:38;23.03;;;6.20;;
5690;SDS011;2870;42.680;23.364;2023-02-19T13:30:23;13.97;;;5.63;;
5690;SDS011;2870;42.680;23.364;2023-02-19T13:33:02;11.10;;;5.67;;
5690;SDS011;2870;42.680;23.364;2023-02-19T13:35:50;9.67;;;5.30;;
5690;SDS011;2870;42.680;23.364;2023-02-19T13:38:30;10.10;;;6.00;;
5690;SDS011;2870;42.680;23.364;2023-02-19T13:40:57;11.23;;;5.53;;
5690;SDS011;2870;42.680;23.364;2023-02-19T13:43:27;11.27;;;5.77;;
5690;SDS011;2870;42.680;23.364;2023-02-19T13:45:59;9.13;;;5.40;;
5690;SDS011;2870;42.680;23.364;2023-02-19T13:48:29;11.83;;;6.10;;
5690;SDS011;2870;42.680;23.364;2023-02-19T13:54:03;12.73;;;6.47;;
5690;SDS011;2870;42.680;23.364;2023-02-19T13:56:39;13.87;;;6.10;;
5690;SDS011;2870;42.680;23.364;2023-02-19T13:59:24;10.90;;;5.40;;
5690;SDS011;2870;42.680;23.364;2023-02-19T14:04:45;11.20;;;6.00;;
5690;SDS011;2870;42.680;23.364;2023-02-19T14:07:20;8.97;;;5.80;;
5690;SDS011;2870;42.680;23.364;2023-02-19T14:10:03;11.70;;;5.67;;
5690;SDS011;2870;42.680;23.364;2023-02-19T14:12:36;12.57;;;6.10;;
5690;SDS011;2870;42.680;23.364;2023-02-19T14:21:06;7.70;;;4.90;;
5690;SDS011;2870;42.680;23.364;2023-02-19T14:23:41;11.60;;;6.27;;
5690;SDS011;2870;42.680;23.364;2023-02-19T14:26:09;11.60;;;6.60;;
5690;SDS011;2870;42.680;23.364;2023-02-19T14:28:39;9.70;;;5.57;;
5690;SDS011;2870;42.680;23.364;2023-02-19T14:31:19;10.07;;;5.83;;
5690;SDS011;2870;42.680;23.364;2023-02-19T14:33:52;9.93;;;5.30;;
5690;SDS011;2870;42.680;23.364;2023-02-19T14:36:25;13.83;;;8.20;;
5690;SDS011;2870;42.680;23.364;2023-02-19T14:39:09;10.77;;;6.20;;
5690;SDS011;2870;42.680;23.364;2023-02-19T14:41:40;9.30;;;6.43;;
5690;SDS011;2870;42.680;23.364;2023-02-19T14:44:12;12.90;;;7.17;;
5690;SDS011;2870;42.680;23.364;2023-02-19T14:46:45;10.07;;;6.23;;
5690;SDS011;2870;42.680;23.364;2023-02-19T14:49:18;11.40;;;6.13;;
5690;SDS011;2870;42.680;23.364;2023-02-19T14:51:53;15.03;;;6.80;;
5690;SDS011;2870;42.680;23.364;2023-02-19T14:54:28;9.90;;;6.23;;
5690;SDS011;2870;42.680;23.364;2023-02-19T14:57:02;17.33;;;7.50;;
5690;SDS011;2870;42.680;23.364;2023-02-19T14:59:36;13.53;;;7.50;;
5690;SDS011;2870;42.680;23.364;2023-02-19T15:02:12;13.97;;;8.80;;
5690;SDS011;2870;42.680;23.364;2023-02-19T15:04:41;16.90;;;7.40;;
5690;SDS011;2870;42.680;23.364;2023-02-19T15:07:09;18.47;;;7.37;;
5690;SDS011;2870;42.680;23.364;2023-02-19T15:09:41;11.77;;;8.20;;
5690;SDS011;2870;42.680;23.364;2023-02-19T15:12:13;14.53;;;8.83;;
5690;SDS011;2870;42.680;23.364;2023-02-19T15:14:42;19.60;;;7.97;;
5690;SDS011;2870;42.680;23.364;2023-02-19T15:17:11;17.47;;;8.17;;
5690;SDS011;2870;42.680;23.364;2023-02-19T15:19:43;16.87;;;8.20;;
5690;SDS011;2870;42.680;23.364;2023-02-19T15:22:18;19.93;;;9.07;;
5690;SDS011;2870;42.680;23.364;2023-02-19T15:24:47;19.13;;;10.07;;
5690;SDS011;2870;42.680;23.364;2023-02-19T15:27:15;14.33;;;9.27;;
5690;SDS011;2870;42.680;23.364;2023-02-19T15:29:45;18.37;;;9.73;;
5690;SDS011;2870;42.680;23.364;2023-02-19T15:32:16;30.90;;;14.60;;
5690;SDS011;2870;42.680;23.364;2023-02-19T15:34:52;27.23;;;14.63;;
5690;SDS011;2870;42.680;23.364;2023-02-19T15:37:19;26.33;;;15.57;;